Time;durP1;ratioP1;P1;durP2;ratioP2;P2;SDS_P1;SDS_P2;PMS_P1;PMS_P2;Temp;Humidity;BMP_temperature;BMP_pressure;BME280_temperature;BME280_humidity;BME280_pressure;Samples;Min_cycle;Max_cycle;Signal;HPM_P1;HPM_P2
2021/05/02 00:00:32;;;;;;;8.05;5.68;;;;;;;10.52;29.90;101041.63;3538420;40;20064;-72
2021/05/02 00:03:01;;;;;;;8.18;5.78;;;;;;;10.48;29.93;101035.53;3536527;40;20320;-72
2021/05/02 00:05:31;;;;;;;9.00;6.22;;;;;;;10.45;30.14;101038.50;3538276;40;20063;-72
2021/05/02 00:07:59;;;;;;;8.20;5.95;;;;;;;10.42;30.03;101038.78;3539715;40;20315;-72
2021/05/02 00:10:30;;;;;;;8.23;5.90;;;;;;;10.39;30.37;101038.16;3537277;40;20057;-72
2021/05/02 00:12:59;;;;;;;8.90;6.28;;;;;;;10.35;30.41;101032.09;3540017;40;20061;-72
2021/05/02 00:15:27;;;;;;;8.48;6.15;;;;;;;10.32;30.35;101029.59;3539842;40;20047;-72
2021/05/02 00:17:56;;;;;;;8.85;5.80;;;;;;;10.29;30.41;101034.47;3540188;40;20387;-72
2021/05/02 00:20:26;;;;;;;7.80;5.43;;;;;;;10.25;30.60;101036.56;3539326;40;20146;-72
2021/05/02 00:22:57;;;;;;;7.88;5.63;;;;;;;10.22;30.61;101031.34;3537751;40;20106;-72
2021/05/02 00:25:26;;;;;;;8.15;5.75;;;;;;;10.20;30.80;101032.47;3541366;40;20057;-71
2021/05/02 00:27:55;;;;;;;8.10;5.40;;;;;;;10.15;30.73;101032.84;3542599;40;20051;-73
2021/05/02 00:30:25;;;;;;;9.10;5.88;;;;;;;10.13;30.67;101035.69;3539615;40;20058;-72
2021/05/02 00:32:54;;;;;;;9.23;6.10;;;;;;;10.10;30.99;101041.44;3538652;40;20354;-73
2021/05/02 00:35:24;;;;;;;8.88;5.38;;;;;;;10.08;31.09;101037.06;3549531;40;20395;-72
2021/05/02 00:37:53;;;;;;;9.30;6.22;;;;;;;10.04;31.05;101035.59;3541109;40;20043;-72
2021/05/02 00:40:26;;;;;;;9.07;6.35;;;;;;;10.01;30.92;101044.91;3533098;40;20395;-72
2021/05/02 00:42:56;;;;;;;7.25;5.30;;;;;;;9.97;31.36;101040.66;3537538;40;20047;-72
2021/05/02 00:45:27;;;;;;;8.45;5.82;;;;;;;9.96;31.33;101046.28;3539670;40;20083;-72
2021/05/02 00:48:00;;;;;;;8.35;5.63;;;;;;;9.93;31.38;101043.78;3541191;40;20419;-72
2021/05/02 00:50:47;;;;;;;8.57;5.57;;;;;;;9.89;31.80;101043.16;3543320;40;20066;-72
2021/05/02 00:53:21;;;;;;;8.00;5.40;;;;;;;9.86;32.21;101051.63;3536801;40;20058;-72
2021/05/02 00:55:54;;;;;;;7.78;5.22;;;;;;;9.82;31.72;101046.50;3549632;40;20054;-72
2021/05/02 00:58:40;;;;;;;8.27;5.95;;;;;;;9.81;32.34;101050.22;3538106;40;20051;-72
2021/05/02 01:01:09;;;;;;;8.60;5.63;;;;;;;9.74;31.85;101050.72;3541243;40;20055;-72
2021/05/02 01:03:43;;;;;;;7.63;5.40;;;;;;;9.73;31.96;101050.84;3536522;40;20054;-72
2021/05/02 01:06:14;;;;;;;8.73;6.05;;;;;;;9.67;31.82;101054.91;3542839;40;20054;-72
2021/05/02 01:08:42;;;;;;;8.75;5.60;;;;;;;9.65;31.88;101051.41;3537110;40;20076;-72
2021/05/02 01:11:12;;;;;;;8.32;5.75;;;;;;;9.66;32.20;101057.75;3535726;40;20301;-72
2021/05/02 01:13:48;;;;;;;8.20;5.57;;;;;;;9.65;32.66;101054.16;3538402;40;20058;-73
2021/05/02 01:16:19;;;;;;;7.75;5.63;;;;;;;9.61;32.17;101049.06;3540963;40;20046;-72
2021/05/02 01:18:48;;;;;;;9.48;5.53;;;;;;;9.59;32.18;101051.91;3539506;40;20067;-72
2021/05/02 01:21:18;;;;;;;8.32;5.80;;;;;;;9.58;32.22;101054.75;3529777;40;20157;-72
2021/05/02 01:23:47;;;;;;;8.43;6.20;;;;;;;9.53;32.39;101052.41;3538725;40;20063;-71
2021/05/02 01:26:17;;;;;;;7.68;5.20;;;;;;;9.51;32.80;101059.84;3537648;40;20058;-72
2021/05/02 01:28:45;;;;;;;7.85;5.40;;;;;;;9.47;32.22;101061.06;3543061;40;20060;-72
2021/05/02 01:31:13;;;;;;;8.23;5.35;;;;;;;9.44;32.29;101063.19;3536002;40;20078;-72
2021/05/02 01:33:41;;;;;;;8.52;5.65;;;;;;;9.40;32.47;101060.69;3529581;40;20234;-71
2021/05/02 01:36:08;;;;;;;7.70;5.68;;;;;;;9.37;32.64;101058.22;3538803;40;20051;-72
2021/05/02 01:38:36;;;;;;;7.75;5.50;;;;;;;9.35;32.52;101060.19;3540285;40;20054;-72
2021/05/02 01:41:04;;;;;;;8.75;5.65;;;;;;;9.34;33.04;101066.63;3540896;40;20355;-72
2021/05/02 01:43:32;;;;;;;7.97;5.43;;;;;;;9.30;32.79;101065.09;3541774;40;20050;-72
2021/05/02 01:46:00;;;;;;;9.20;6.05;;;;;;;9.28;32.64;101058.03;3537051;40;20054;-72
2021/05/02 01:48:29;;;;;;;8.18;6.15;;;;;;;9.27;32.85;101068.09;3540818;40;20050;-71
2021/05/02 01:51:00;;;;;;;8.82;5.75;;;;;;;9.24;33.02;101062.88;3539239;40;20081;-72
2021/05/02 01:53:29;;;;;;;7.93;5.38;;;;;;;9.21;33.03;101071.31;3540525;40;20154;-72
2021/05/02 01:55:59;;;;;;;9.65;5.88;;;;;;;9.20;32.94;101074.16;3538482;40;20043;-71
2021/05/02 01:58:29;;;;;;;9.02;5.78;;;;;;;9.19;33.21;101067.81;3542800;40;20087;-71
2021/05/02 02:00:57;;;;;;;8.80;5.70;;;;;;;9.16;33.18;101068.03;3541104;40;20054;-71
2021/05/02 02:03:25;;;;;;;8.93;5.93;;;;;;;9.15;33.11;101074.50;3538152;40;20061;-72
2021/05/02 02:05:52;;;;;;;8.50;6.03;;;;;;;9.13;33.34;101073.75;3538790;40;20054;-72
2021/05/02 02:08:20;;;;;;;8.48;6.00;;;;;;;9.13;33.20;101079.22;3540557;40;20065;-72
2021/05/02 02:10:50;;;;;;;9.05;6.28;;;;;;;9.12;33.43;101080.19;3540825;40;20051;-72
2021/05/02 02:13:19;;;;;;;7.75;5.53;;;;;;;9.12;33.53;101080.19;3540607;40;20137;-71
2021/05/02 02:15:48;;;;;;;8.90;6.10;;;;;;;9.11;33.72;101083.91;3535082;40;20059;-72
2021/05/02 02:18:17;;;;;;;9.10;6.05;;;;;;;9.11;33.50;101088.50;3537340;40;20062;-72
2021/05/02 02:20:46;;;;;;;8.88;5.97;;;;;;;9.11;33.32;101077.59;3541950;40;20117;-72
2021/05/02 02:23:18;;;;;;;10.23;6.50;;;;;;;9.11;34.06;101085.78;3539622;40;20551;-72
2021/05/02 02:25:49;;;;;;;8.13;5.78;;;;;;;9.08;33.60;101092.31;3544763;40;20050;-72
2021/05/02 02:28:18;;;;;;;7.95;6.18;;;;;;;9.09;33.87;101095.94;3537470;40;20128;-71
2021/05/02 02:30:50;;;;;;;8.35;5.97;;;;;;;9.07;33.98;101093.31;3542939;40;20057;-72
2021/05/02 02:33:17;;;;;;;9.35;6.65;;;;;;;9.05;33.73;101098.03;3538014;40;20117;-72
2021/05/02 02:35:51;;;;;;;10.20;7.13;;;;;;;9.06;34.64;101097.03;3538321;40;20082;-72
2021/05/02 02:38:21;;;;;;;10.35;6.00;;;;;;;9.03;33.86;101094.56;3536814;40;20058;-71
2021/05/02 02:40:51;;;;;;;9.82;6.38;;;;;;;9.03;34.10;101101.88;3537250;40;20089;-73
2021/05/02 02:43:25;;;;;;;9.65;6.35;;;;;;;9.03;34.65;101101.88;3541000;40;20307;-71
2021/05/02 02:45:55;;;;;;;9.65;6.97;;;;;;;9.01;34.20;101101.97;3538159;40;20073;-72
2021/05/02 02:48:25;;;;;;;9.52;6.88;;;;;;;8.99;34.20;101120.31;3543764;40;20046;-72
2021/05/02 02:50:56;;;;;;;10.35;7.35;;;;;;;8.99;34.60;101120.31;3545572;40;20315;-72
2021/05/02 02:53:26;;;;;;;12.18;7.68;;;;;;;8.95;34.11;101119.69;3540592;40;20050;-72
2021/05/02 02:56:01;;;;;;;11.50;7.38;;;;;;;8.97;34.96;101125.88;3540663;40;20065;-73
2021/05/02 02:58:34;;;;;;;10.77;7.57;;;;;;;8.95;34.94;101125.16;3539164;40;20058;-72
2021/05/02 03:01:05;;;;;;;11.77;7.60;;;;;;;8.92;34.92;101127.22;3537608;40;20054;-72
2021/05/02 03:03:34;;;;;;;11.30;7.88;;;;;;;8.92;34.41;101130.81;3537716;40;20042;-72
2021/05/02 03:06:02;;;;;;;12.48;7.82;;;;;;;8.91;34.34;101130.94;3537277;40;20055;-73
2021/05/02 03:08:31;;;;;;;10.95;7.18;;;;;;;8.91;34.54;101128.19;3539433;40;20388;-72
2021/05/02 03:10:58;;;;;;;11.25;7.75;;;;;;;8.90;34.79;101124.59;3537541;40;20355;-72
2021/05/02 03:13:27;;;;;;;12.10;8.10;;;;;;;8.90;34.55;101132.78;3543259;40;20050;-72
2021/05/02 03:15:59;;;;;;;11.75;7.32;;;;;;;8.91;35.30;101130.94;3541633;40;20133;-74
2021/05/02 03:18:30;;;;;;;10.88;7.57;;;;;;;8.89;35.32;101122.84;3536196;40;20068;-77
2021/05/02 03:21:03;;;;;;;10.00;6.93;;;;;;;8.90;35.53;101135.50;3538954;40;20054;-72
2021/05/02 03:23:32;;;;;;;12.13;7.82;;;;;;;8.89;34.92;101138.34;3543220;40;20046;-72
2021/05/02 03:26:05;;;;;;;12.10;7.63;;;;;;;8.90;35.53;101134.63;3539871;40;20062;-73
2021/05/02 03:28:36;;;;;;;11.52;7.38;;;;;;;8.87;35.34;101135.75;3537727;40;20404;-72
2021/05/02 03:31:11;;;;;;;9.85;7.55;;;;;;;8.87;35.09;101140.34;3539140;40;20407;-72
2021/05/02 03:33:46;;;;;;;10.15;7.20;;;;;;;8.88;35.45;101142.09;3536034;40;20055;-72
2021/05/02 03:36:20;;;;;;;10.85;6.93;;;;;;;8.87;35.68;101141.22;3535622;40;20085;-73
2021/05/02 03:38:49;;;;;;;11.55;7.45;;;;;;;8.85;35.04;101150.50;3538474;40;20059;-72
2021/05/02 03:41:18;;;;;;;11.32;7.68;;;;;;;8.85;35.12;101148.63;3541418;40;20313;-72
2021/05/02 03:43:47;;;;;;;11.75;7.38;;;;;;;8.84;34.93;101151.47;3535973;40;20046;-72
2021/05/02 03:46:24;;;;;;;11.77;7.70;;;;;;;8.85;35.17;101153.22;3529425;40;20276;-72
2021/05/02 03:48:58;;;;;;;10.52;7.13;;;;;;;8.86;36.08;101152.25;3542079;40;20050;-72
2021/05/02 03:51:26;;;;;;;11.18;7.13;;;;;;;8.84;35.22;101165.13;3533713;40;20340;-72
2021/05/02 03:53:54;;;;;;;10.52;6.93;;;;;;;8.84;35.35;101167.84;3538617;40;20051;-72
2021/05/02 03:56:36;;;;;;;11.15;7.70;;;;;;;8.86;36.01;101166.75;3538874;40;20067;-72
2021/05/02 03:59:10;;;;;;;12.43;7.55;;;;;;;8.84;35.95;101168.72;3539234;40;20062;-72
2021/05/02 04:01:41;;;;;;;9.75;6.95;;;;;;;8.82;35.57;101169.81;3540131;40;20412;-72
2021/05/02 04:04:14;;;;;;;9.40;6.32;;;;;;;8.83;35.97;101169.69;3538577;40;20393;-72
2021/05/02 04:06:42;;;;;;;10.45;6.38;;;;;;;8.78;35.29;101177.38;3542209;40;20066;-72
2021/05/02 04:09:12;;;;;;;8.65;6.07;;;;;;;8.81;35.35;101188.03;3546245;40;20110;-73
2021/05/02 04:11:41;;;;;;;10.13;6.50;;;;;;;8.80;35.46;101180.84;3541267;40;20395;-72
2021/05/02 04:14:10;;;;;;;9.43;6.88;;;;;;;8.80;35.46;101178.13;3537293;40;21618;-72
2021/05/02 04:16:37;;;;;;;9.50;6.57;;;;;;;8.79;35.64;101189.16;3541957;40;20415;-72
2021/05/02 04:19:05;;;;;;;11.25;6.50;;;;;;;8.79;35.54;101186.41;3538230;40;20083;-72
2021/05/02 04:21:34;;;;;;;9.45;6.55;;;;;;;8.79;35.75;101192.75;3541104;40;20081;-72
2021/05/02 04:24:02;;;;;;;8.65;5.70;;;;;;;8.77;35.73;101193.84;3545096;40;20054;-72
2021/05/02 04:26:31;;;;;;;8.80;6.25;;;;;;;8.78;35.52;101195.59;3538086;40;20042;-72
2021/05/02 04:28:59;;;;;;;8.68;5.68;;;;;;;8.74;35.60;101192.19;3539166;40;20058;-72
2021/05/02 04:31:26;;;;;;;9.90;6.10;;;;;;;8.75;35.48;101202.13;3540968;40;20054;-72
2021/05/02 04:33:54;;;;;;;11.77;6.90;;;;;;;8.75;35.93;101202.13;3540039;40;20061;-72
2021/05/02 04:36:21;;;;;;;9.95;6.45;;;;;;;8.74;35.46;101205.84;3537934;40;20129;-72
2021/05/02 04:38:49;;;;;;;8.88;5.97;;;;;;;8.74;35.73;101208.56;3537750;40;20137;-72
2021/05/02 04:41:17;;;;;;;9.68;6.40;;;;;;;8.70;35.91;101215.25;3541719;40;20396;-72
2021/05/02 04:43:44;;;;;;;11.07;6.82;;;;;;;8.70;35.85;101217.09;3541457;40;20145;-72
2021/05/02 04:46:13;;;;;;;9.38;6.30;;;;;;;8.68;35.76;101217.19;3536728;40;20057;-72
2021/05/02 04:48:41;;;;;;;8.63;5.93;;;;;;;8.66;36.08;101227.34;3543574;40;20054;-72
2021/05/02 04:51:12;;;;;;;8.52;5.30;;;;;;;8.67;36.13;101223.63;3528432;40;20048;-72
2021/05/02 04:53:41;;;;;;;8.65;5.85;;;;;;;8.66;35.87;101226.47;3543451;40;20221;-72
2021/05/02 04:56:09;;;;;;;8.75;5.70;;;;;;;8.66;35.93;101219.16;3541177;40;20053;-72
2021/05/02 04:58:36;;;;;;;10.07;6.60;;;;;;;8.66;35.90;101229.19;3540868;40;20046;-72
2021/05/02 05:01:04;;;;;;;8.48;5.72;;;;;;;8.64;36.09;101235.63;3538444;40;20058;-72
2021/05/02 05:03:32;;;;;;;8.75;5.72;;;;;;;8.63;36.09;101228.47;3539050;40;20408;-72
2021/05/02 05:06:00;;;;;;;8.02;5.03;;;;;;;8.63;36.06;101246.66;3538351;40;20405;-72
2021/05/02 05:08:28;;;;;;;7.95;5.50;;;;;;;8.63;35.95;101244.81;3542525;40;20050;-72
2021/05/02 05:10:56;;;;;;;8.73;5.38;;;;;;;8.63;35.98;101249.41;3536922;40;20312;-72
2021/05/02 05:13:26;;;;;;;8.13;4.80;;;;;;;8.64;36.09;101245.69;3537813;40;20107;-72
2021/05/02 05:15:55;;;;;;;8.52;5.07;;;;;;;8.64;36.22;101246.53;3536588;40;20058;-72
2021/05/02 05:18:23;;;;;;;8.80;4.95;;;;;;;8.62;36.06;101251.25;3539121;40;20054;-72
2021/05/02 05:20:51;;;;;;;7.38;4.93;;;;;;;8.63;36.02;101254.84;3541244;40;20399;-72
2021/05/02 05:23:19;;;;;;;7.30;4.68;;;;;;;8.60;35.96;101252.34;3542522;40;20141;-72
2021/05/02 05:25:46;;;;;;;7.35;4.32;;;;;;;8.59;36.01;101254.19;3538300;40;20050;-72
2021/05/02 05:28:13;;;;;;;10.18;5.18;;;;;;;8.59;36.07;101259.63;3543452;40;20058;-72
2021/05/02 05:30:42;;;;;;;8.05;4.95;;;;;;;8.60;36.18;101261.38;3537827;40;20294;-72
2021/05/02 05:33:10;;;;;;;6.93;4.50;;;;;;;8.60;36.02;101268.69;3537362;40;20050;-72
2021/05/02 05:35:39;;;;;;;6.32;4.13;;;;;;;8.60;36.06;101268.69;3538864;40;20315;-72
2021/05/02 05:38:06;;;;;;;6.97;4.78;;;;;;;8.59;36.15;101272.41;3542975;40;20046;-72
2021/05/02 05:40:34;;;;;;;7.20;4.57;;;;;;;8.60;36.00;101268.69;3536833;40;20063;-72
2021/05/02 05:43:03;;;;;;;6.22;3.90;;;;;;;8.59;35.95;101276.00;3543575;40;20054;-72
2021/05/02 05:45:31;;;;;;;7.28;3.95;;;;;;;8.60;36.10;101279.59;3537558;40;20400;-72
2021/05/02 05:48:00;;;;;;;6.43;3.80;;;;;;;8.62;36.08;101283.09;3542551;40;20078;-72
2021/05/02 05:50:30;;;;;;;6.18;3.75;;;;;;;8.60;35.95;101279.59;3542517;40;20090;-72
2021/05/02 05:52:58;;;;;;;6.00;3.58;;;;;;;8.62;35.85;101283.09;3541229;40;20058;-72
2021/05/02 05:55:25;;;;;;;6.47;3.33;;;;;;;8.61;36.27;101281.34;3540634;40;20058;-72
2021/05/02 05:57:52;;;;;;;5.97;3.58;;;;;;;8.59;36.11;101281.47;3543639;40;20054;-73
2021/05/02 06:00:22;;;;;;;6.57;3.35;;;;;;;8.61;35.99;101287.69;3539615;40;20058;-73
2021/05/02 06:02:50;;;;;;;5.70;3.38;;;;;;;8.60;35.96;101293.25;3538374;40;20055;-72
2021/05/02 06:05:18;;;;;;;5.15;3.30;;;;;;;8.62;35.93;101294.88;3541790;40;20478;-72
2021/05/02 06:07:46;;;;;;;6.45;3.35;;;;;;;8.62;35.87;101294.88;3539285;40;20061;-72
2021/05/02 06:10:13;;;;;;;5.32;3.33;;;;;;;8.63;35.82;101293.91;3542593;40;20863;-72
2021/05/02 06:12:41;;;;;;;6.40;3.08;;;;;;;8.65;35.63;101299.22;3540190;40;20137;-72
2021/05/02 06:15:10;;;;;;;7.05;3.92;;;;;;;8.65;35.92;101301.94;3539261;40;20112;-72
2021/05/02 06:17:38;;;;;;;6.68;3.40;;;;;;;8.65;35.98;101310.13;3540520;40;20055;-72
2021/05/02 06:20:07;;;;;;;4.72;3.10;;;;;;;8.66;35.90;101308.28;3541546;40;20066;-72
2021/05/02 06:22:35;;;;;;;4.97;2.88;;;;;;;8.68;36.00;101307.19;3538398;40;20081;-73
2021/05/02 06:25:06;;;;;;;6.75;3.10;;;;;;;8.68;36.07;101309.94;3539868;40;20054;-72
2021/05/02 06:27:34;;;;;;;5.70;3.20;;;;;;;8.72;36.02;101316.06;3536598;40;20070;-72
2021/05/02 06:30:01;;;;;;;5.40;2.85;;;;;;;8.75;36.08;101296.72;3541725;40;20129;-71
2021/05/02 06:32:29;;;;;;;4.32;2.65;;;;;;;8.78;36.33;101305.56;3545317;40;20120;-72
2021/05/02 06:34:58;;;;;;;4.78;2.60;;;;;;;8.85;36.27;101315.06;3539197;40;20038;-72
2021/05/02 06:37:26;;;;;;;4.95;2.75;;;;;;;8.93;36.29;101309.91;3551226;40;20062;-72
2021/05/02 06:39:56;;;;;;;4.85;2.60;;;;;;;9.00;36.29;101316.66;3540208;40;20051;-72
2021/05/02 06:42:23;;;;;;;4.22;2.50;;;;;;;9.08;36.28;101321.56;3542814;40;20392;-72
2021/05/02 06:44:52;;;;;;;4.28;2.53;;;;;;;9.17;36.01;101314.56;3540276;40;20067;-72
2021/05/02 06:47:21;;;;;;;4.22;2.58;;;;;;;9.24;35.88;101318.59;3540499;40;20042;-72
2021/05/02 06:49:48;;;;;;;4.68;2.50;;;;;;;9.31;35.80;101315.28;3539905;40;20134;-72
2021/05/02 06:52:16;;;;;;;3.53;2.47;;;;;;;9.38;36.10;101321.19;3535729;40;20055;-73
2021/05/02 06:54:44;;;;;;;5.03;2.35;;;;;;;9.47;36.07;101320.47;3539237;40;20188;-73
2021/05/02 06:57:12;;;;;;;3.88;2.33;;;;;;;9.59;36.24;101326.91;3534458;40;20443;-72
2021/05/02 06:59:41;;;;;;;4.68;2.30;;;;;;;9.67;36.05;101321.72;3530127;40;20047;-72
2021/05/02 07:02:08;;;;;;;5.18;2.17;;;;;;;9.80;36.27;101328.03;3536595;40;20083;-68
2021/05/02 07:04:36;;;;;;;3.78;1.70;;;;;;;9.93;36.42;101326.13;3538486;40;20063;-68
2021/05/02 07:07:03;;;;;;;3.30;1.90;;;;;;;10.07;36.61;101339.59;3533888;40;20066;-68
2021/05/02 07:09:34;;;;;;;3.85;2.00;;;;;;;10.23;36.18;101347.50;3530640;40;20054;-68
2021/05/02 07:12:02;;;;;;;3.50;1.83;;;;;;;10.37;35.88;101336.34;3538100;40;20069;-68
2021/05/02 07:14:31;;;;;;;3.58;1.80;;;;;;;10.52;35.70;101339.78;3545434;40;20055;-68
2021/05/02 07:16:58;;;;;;;3.85;1.60;;;;;;;10.66;35.47;101339.53;3540845;40;20047;-68
2021/05/02 07:19:26;;;;;;;4.78;1.80;;;;;;;10.81;35.54;101331.97;3541279;40;20420;-68
2021/05/02 07:22:01;;;;;;;4.47;1.80;;;;;;;10.95;35.32;101337.25;3539258;40;20137;-68
2021/05/02 07:24:29;;;;;;;3.60;1.92;;;;;;;11.07;35.11;101341.75;3540714;40;20051;-68
2021/05/02 07:27:00;;;;;;;4.40;2.40;;;;;;;11.20;34.74;101347.94;3542385;40;20054;-72
2021/05/02 07:29:28;;;;;;;4.13;2.13;;;;;;;11.31;34.21;101347.09;3534144;40;20055;-72
2021/05/02 07:31:56;;;;;;;5.55;2.10;;;;;;;11.41;34.12;101350.81;3539321;40;20066;-72
2021/05/02 07:34:25;;;;;;;2.58;1.60;;;;;;;11.46;33.77;101351.31;3539912;40;20251;-74
2021/05/02 07:36:54;;;;;;;3.35;1.80;;;;;;;11.53;33.46;101348.91;3545735;40;20046;-73
2021/05/02 07:39:22;;;;;;;4.07;2.10;;;;;;;11.57;33.15;101350.44;3548025;40;20050;-73
2021/05/02 07:41:53;;;;;;;2.65;1.60;;;;;;;11.61;33.21;101349.16;3540335;40;20050;-74
2021/05/02 07:44:20;;;;;;;3.63;1.60;;;;;;;11.66;33.34;101355.16;3541592;40;20057;-73
2021/05/02 07:46:48;;;;;;;3.38;1.90;;;;;;;11.69;32.95;101354.03;3540483;40;20121;-72
2021/05/02 07:49:16;;;;;;;3.38;1.73;;;;;;;11.71;32.58;101350.13;3539760;40;20065;-72
2021/05/02 07:51:44;;;;;;;2.97;1.60;;;;;;;11.69;32.74;101356.78;3539747;40;20055;-72
2021/05/02 07:54:11;;;;;;;3.08;1.80;;;;;;;11.68;32.44;101350.41;3540776;40;20059;-72
2021/05/02 07:56:40;;;;;;;4.47;1.65;;;;;;;11.70;32.43;101363.97;3540617;40;20087;-72
2021/05/02 07:59:07;;;;;;;3.25;1.80;;;;;;;11.70;32.44;101364.84;3540745;40;20073;-73
2021/05/02 08:01:35;;;;;;;6.13;1.98;;;;;;;11.72;32.45;101368.31;3542157;40;20547;-72
2021/05/02 08:04:04;;;;;;;3.05;1.48;;;;;;;11.74;32.25;101362.72;3534038;40;20074;-72
2021/05/02 08:06:32;;;;;;;4.18;1.92;;;;;;;11.74;32.04;101366.34;3539724;40;20054;-72
2021/05/02 08:09:00;;;;;;;3.45;1.70;;;;;;;11.71;31.87;101373.94;3539403;40;20047;-72
2021/05/02 08:11:30;;;;;;;3.50;1.90;;;;;;;11.65;31.83;101370.72;3539303;40;20055;-72
2021/05/02 08:13:57;;;;;;;3.65;1.80;;;;;;;11.65;31.85;101367.09;3537795;40;20066;-73
2021/05/02 08:16:25;;;;;;;2.85;1.80;;;;;;;11.64;31.98;101366.22;3537886;40;20054;-72
2021/05/02 08:18:52;;;;;;;3.92;1.98;;;;;;;11.66;31.70;101368.84;3538851;40;20055;-72
2021/05/02 08:21:22;;;;;;;3.28;1.60;;;;;;;11.68;31.82;101366.88;3543298;40;20057;-72
2021/05/02 08:23:51;;;;;;;3.63;1.70;;;;;;;11.72;31.82;101368.31;3543852;40;20085;-72
2021/05/02 08:26:18;;;;;;;3.63;1.90;;;;;;;11.76;31.94;101366.22;3541386;40;20405;-72
2021/05/02 08:28:45;;;;;;;4.63;1.90;;;;;;;11.81;31.94;101364.81;3541701;40;20046;-72
2021/05/02 08:31:13;;;;;;;2.88;1.75;;;;;;;11.88;31.77;101367.91;3539181;40;20347;-72
2021/05/02 08:33:41;;;;;;;3.38;1.67;;;;;;;11.90;31.12;101377.75;3537985;40;20144;-72
2021/05/02 08:36:09;;;;;;;3.05;1.70;;;;;;;11.93;31.45;101377.56;3539181;40;20087;-73
2021/05/02 08:38:37;;;;;;;4.10;1.75;;;;;;;11.95;31.16;101377.41;3543674;40;20411;-72
2021/05/02 08:41:06;;;;;;;4.40;1.92;;;;;;;11.98;31.21;101379.91;3539457;40;20141;-72
2021/05/02 08:43:34;;;;;;;3.95;1.60;;;;;;;12.01;31.12;101374.16;3535850;40;20437;-72
2021/05/02 08:46:02;;;;;;;3.75;1.80;;;;;;;12.06;31.18;101373.75;3543821;40;20047;-72
2021/05/02 08:48:30;;;;;;;3.67;1.60;;;;;;;12.14;31.01;101385.81;3543803;40;20057;-73
2021/05/02 08:50:59;;;;;;;3.70;1.42;;;;;;;12.20;30.96;101387.16;3546612;40;20066;-73
2021/05/02 08:53:30;;;;;;;2.40;1.50;;;;;;;12.24;30.70;101388.66;3543906;40;20069;-72
2021/05/02 08:56:01;;;;;;;2.78;1.50;;;;;;;12.28;30.49;101382.78;3539779;40;20069;-73
2021/05/02 08:58:30;;;;;;;3.05;1.52;;;;;;;12.31;30.56;101382.53;3539432;40;20071;-73
2021/05/02 09:01:01;;;;;;;3.22;1.50;;;;;;;12.34;30.33;101384.13;3542101;40;20396;-74
2021/05/02 09:03:43;;;;;;;4.22;1.83;;;;;;;12.39;30.17;101380.00;3535264;40;20117;-73
2021/05/02 09:06:23;;;;;;;3.95;1.77;;;;;;;12.42;30.29;101389.84;3536096;40;20054;-74
2021/05/02 09:08:53;;;;;;;3.38;1.80;;;;;;;12.46;30.13;101384.94;3539701;40;20054;-73
2021/05/02 09:11:31;;;;;;;2.90;1.73;;;;;;;12.52;29.71;101387.16;3538607;40;20303;-72
2021/05/02 09:14:02;;;;;;;3.08;1.80;;;;;;;12.54;29.89;101388.78;3546042;40;20054;-73
2021/05/02 09:16:44;;;;;;;3.30;1.70;;;;;;;12.56;29.63;101383.16;3543637;40;20073;-73
2021/05/02 09:19:12;;;;;;;2.53;1.70;;;;;;;12.55;29.67;101392.38;3544857;40;20049;-73
2021/05/02 09:21:42;;;;;;;3.22;1.95;;;;;;;12.55;29.69;101387.78;3545044;40;20428;-73
2021/05/02 09:24:23;;;;;;;3.00;1.95;;;;;;;12.58;29.49;101390.25;3541789;40;20058;-73
2021/05/02 09:27:06;;;;;;;3.90;1.63;;;;;;;12.58;29.28;101384.78;3539708;40;20509;-73
2021/05/02 09:29:36;;;;;;;3.50;1.50;;;;;;;12.60;29.54;101381.88;3541183;40;20098;-71
2021/05/02 09:32:06;;;;;;;4.00;1.67;;;;;;;12.64;29.48;101375.13;3544317;40;20062;-72
2021/05/02 09:34:34;;;;;;;4.30;1.80;;;;;;;12.67;29.31;101380.38;3539554;40;20669;-72
2021/05/02 09:37:06;;;;;;;2.72;1.48;;;;;;;12.72;28.89;101386.31;3537566;40;20051;-74
2021/05/02 09:39:42;;;;;;;2.25;1.50;;;;;;;12.71;28.72;101390.94;3541390;40;20058;-72
2021/05/02 09:42:15;;;;;;;2.88;1.45;;;;;;;12.71;28.70;101390.06;3540144;40;20058;-73
2021/05/02 09:44:50;;;;;;;3.03;1.45;;;;;;;12.73;28.35;101399.91;3543480;40;20054;-74
2021/05/02 09:47:30;;;;;;;3.55;1.75;;;;;;;12.74;28.28;101389.78;3542799;40;20046;-73
2021/05/02 09:50:15;;;;;;;2.25;1.25;;;;;;;12.73;28.12;101394.41;3541664;40;20303;-73
2021/05/02 09:52:53;;;;;;;3.25;1.40;;;;;;;12.75;28.09;101394.28;3543571;40;20147;-73
2021/05/02 09:55:30;;;;;;;4.50;1.67;;;;;;;12.77;27.82;101395.00;3538775;40;20133;-73
2021/05/02 09:57:59;;;;;;;2.50;1.70;;;;;;;12.79;28.49;101393.00;3535894;40;20061;-73
2021/05/02 10:00:30;;;;;;;2.35;1.17;;;;;;;12.84;28.10;101390.75;3534408;40;20057;-72
2021/05/02 10:03:07;;;;;;;3.25;1.20;;;;;;;12.86;28.40;101391.44;3538699;40;20051;-73
2021/05/02 10:05:36;;;;;;;3.55;1.35;;;;;;;12.90;28.27;101390.19;3538463;40;20054;-73
2021/05/02 10:08:08;;;;;;;2.30;1.27;;;;;;;12.98;27.64;101389.56;3531457;40;20085;-73
2021/05/02 10:10:37;;;;;;;1.88;1.20;;;;;;;13.03;27.57;101401.00;3534005;40;20065;-73
2021/05/02 10:13:05;;;;;;;1.80;1.23;;;;;;;13.06;27.62;101403.47;3538756;40;20094;-72
2021/05/02 10:15:34;;;;;;;2.50;1.40;;;;;;;13.11;27.38;101406.69;3541471;40;20396;-74
2021/05/02 10:18:01;;;;;;;1.75;1.00;;;;;;;13.11;26.98;101403.94;3540497;40;20094;-73
2021/05/02 10:20:29;;;;;;;3.22;1.27;;;;;;;13.10;26.80;101397.56;3537639;40;20054;-73
2021/05/02 10:22:56;;;;;;;3.00;1.40;;;;;;;13.12;27.05;101403.78;3543096;40;20094;-72
2021/05/02 10:25:24;;;;;;;2.90;1.40;;;;;;;13.13;26.92;101404.66;3543483;40;20050;-73
2021/05/02 10:27:52;;;;;;;2.75;1.38;;;;;;;13.14;26.64;101400.94;3542604;40;20062;-73
2021/05/02 10:30:23;;;;;;;2.28;1.02;;;;;;;13.17;26.50;101404.25;3538266;40;20058;-73
2021/05/02 10:32:59;;;;;;;2.63;1.17;;;;;;;13.21;26.30;101404.00;3540291;40;20059;-72
2021/05/02 10:35:43;;;;;;;2.75;1.20;;;;;;;13.24;26.30;101412.84;3541525;40;20056;-73
2021/05/02 10:38:11;;;;;;;2.13;1.15;;;;;;;13.27;26.57;101417.16;3538846;40;20070;-72
2021/05/02 10:40:39;;;;;;;2.45;1.33;;;;;;;13.30;26.48;101415.03;3537343;40;20429;-72
2021/05/02 10:43:09;;;;;;;2.38;1.20;;;;;;;13.33;25.88;101408.41;3544247;40;20392;-73
2021/05/02 10:45:48;;;;;;;2.92;1.50;;;;;;;13.34;26.12;101415.63;3542536;40;20030;-73
2021/05/02 10:48:49;;;;;;;2.47;1.30;;;;;;;13.30;25.92;101409.53;3531798;40;20043;-72
2021/05/02 10:51:35;;;;;;;2.25;1.40;;;;;;;13.29;25.97;101410.53;3540098;40;20050;-73
2021/05/02 10:54:15;;;;;;;3.35;1.35;;;;;;;13.30;25.39;101411.41;3533249;40;20042;-72
2021/05/02 10:56:49;;;;;;;2.03;1.35;;;;;;;13.26;25.99;101413.56;3536997;40;20054;-73
2021/05/02 10:59:18;;;;;;;2.67;1.58;;;;;;;13.22;26.23;101417.59;3528306;40;20090;-73
2021/05/02 11:01:46;;;;;;;4.05;1.50;;;;;;;13.25;26.12;101419.22;3537349;40;20063;-73
2021/05/02 11:04:14;;;;;;;2.05;1.38;;;;;;;13.21;25.91;101415.84;3540021;40;20055;-77
2021/05/02 11:06:54;;;;;;;2.50;1.40;;;;;;;13.26;25.38;101412.69;3544241;40;20054;-73
2021/05/02 11:09:28;;;;;;;3.08;1.58;;;;;;;13.21;25.81;101424.09;3536999;40;20453;-72
2021/05/02 11:11:58;;;;;;;2.08;1.20;;;;;;;13.21;25.53;101426.84;3537584;40;20492;-73
2021/05/02 11:14:44;;;;;;;4.10;1.40;;;;;;;13.23;25.22;101426.72;3536662;40;20050;-73
2021/05/02 11:17:23;;;;;;;2.80;1.30;;;;;;;13.24;25.14;101428.47;3534960;40;20050;-73
2021/05/02 11:19:53;;;;;;;1.90;1.17;;;;;;;13.22;25.65;101436.81;3540448;40;20071;-73
2021/05/02 11:22:23;;;;;;;1.70;1.20;;;;;;;13.27;25.20;101436.41;3535027;40;20042;-73
2021/05/02 11:24:57;;;;;;;1.67;1.20;;;;;;;13.30;25.40;101433.41;3542734;40;20062;-74
2021/05/02 11:27:49;;;;;;;2.20;1.20;;;;;;;13.31;25.09;101425.03;3535878;40;20071;-73
2021/05/02 11:30:23;;;;;;;1.92;1.10;;;;;;;13.34;25.18;101421.97;3531257;40;20053;-73
2021/05/02 11:32:55;;;;;;;3.40;1.40;;;;;;;13.36;25.17;101436.47;3534317;40;20419;-72
2021/05/02 11:35:56;;;;;;;3.30;1.50;;;;;;;13.36;24.85;101432.84;3536045;40;20055;-73
2021/05/02 11:38:40;;;;;;;2.60;1.35;;;;;;;13.36;24.99;101425.47;3540464;40;20046;-73
2021/05/02 11:41:10;;;;;;;2.33;1.40;;;;;;;13.37;25.31;101424.47;3538108;40;20141;-73
2021/05/02 11:43:40;;;;;;;2.15;1.30;;;;;;;13.40;24.90;101429.69;3536964;40;20408;-73